sensor_id;sensor_type;location;lat;lon;timestamp;temperature;humidity
13115;DHT22;6623;52.120;8.660;2023-02-28T00:02:21;0.80;72.10
13115;DHT22;6623;52.120;8.660;2023-02-28T00:04:46;0.80;72.20
13115;DHT22;6623;52.120;8.660;2023-02-28T00:07:26;0.80;72.30
13115;DHT22;6623;52.120;8.660;2023-02-28T00:09:53;0.80;72.30
13115;DHT22;6623;52.120;8.660;2023-02-28T00:12:18;0.80;72.40
13115;DHT22;6623;52.120;8.660;2023-02-28T00:14:44;0.80;72.40
13115;DHT22;6623;52.120;8.660;2023-02-28T00:17:09;0.70;72.50
13115;DHT22;6623;52.120;8.660;2023-02-28T00:19:35;0.80;72.70
13115;DHT22;6623;52.120;8.660;2023-02-28T00:22:00;0.70;72.80
13115;DHT22;6623;52.120;8.660;2023-02-28T00:24:26;0.70;72.80
13115;DHT22;6623;52.120;8.660;2023-02-28T00:26:51;0.70;72.90
13115;DHT22;6623;52.120;8.660;2023-02-28T00:29:17;0.70;72.90
13115;DHT22;6623;52.120;8.660;2023-02-28T00:31:42;0.70;72.90
13115;DHT22;6623;52.120;8.660;2023-02-28T00:34:07;0.70;72.80
13115;DHT22;6623;52.120;8.660;2023-02-28T00:36:33;0.60;72.80
13115;DHT22;6623;52.120;8.660;2023-02-28T00:38:58;0.60;72.90
13115;DHT22;6623;52.120;8.660;2023-02-28T00:41:24;0.60;73.00
13115;DHT22;6623;52.120;8.660;2023-02-28T00:43:50;0.60;73.10
13115;DHT22;6623;52.120;8.660;2023-02-28T00:46:15;0.60;73.30
13115;DHT22;6623;52.120;8.660;2023-02-28T00:48:41;0.60;73.50
13115;DHT22;6623;52.120;8.660;2023-02-28T00:51:06;0.60;73.60
13115;DHT22;6623;52.120;8.660;2023-02-28T00:53:32;0.60;73.80
13115;DHT22;6623;52.120;8.660;2023-02-28T00:55:58;0.70;74.00
13115;DHT22;6623;52.120;8.660;2023-02-28T00:58:24;0.70;74.10
13115;DHT22;6623;52.120;8.660;2023-02-28T01:00:51;0.70;74.10
13115;DHT22;6623;52.120;8.660;2023-02-28T01:03:20;0.70;74.20
13115;DHT22;6623;52.120;8.660;2023-02-28T01:05:46;0.70;74.30
13115;DHT22;6623;52.120;8.660;2023-02-28T01:08:13;0.80;74.40
13115;DHT22;6623;52.120;8.660;2023-02-28T01:10:39;0.70;74.30
13115;DHT22;6623;52.120;8.660;2023-02-28T01:13:04;0.70;74.30
13115;DHT22;6623;52.120;8.660;2023-02-28T01:15:30;0.70;74.30
13115;DHT22;6623;52.120;8.660;2023-02-28T01:17:57;0.70;74.30
13115;DHT22;6623;52.120;8.660;2023-02-28T01:20:23;0.70;74.30
13115;DHT22;6623;52.120;8.660;2023-02-28T01:22:48;0.70;74.20
13115;DHT22;6623;52.120;8.660;2023-02-28T01:25:14;0.70;74.20
13115;DHT22;6623;52.120;8.660;2023-02-28T01:27:39;0.70;74.20
13115;DHT22;6623;52.120;8.660;2023-02-28T01:30:07;0.70;74.10
13115;DHT22;6623;52.120;8.660;2023-02-28T01:32:33;0.70;74.00
13115;DHT22;6623;52.120;8.660;2023-02-28T01:34:58;0.70;74.00
13115;DHT22;6623;52.120;8.660;2023-02-28T01:37:24;0.60;74.00
13115;DHT22;6623;52.120;8.660;2023-02-28T01:39:49;0.60;74.00
13115;DHT22;6623;52.120;8.660;2023-02-28T01:42:15;0.60;74.70
13115;DHT22;6623;52.120;8.660;2023-02-28T01:47:40;0.50;73.90
13115;DHT22;6623;52.120;8.660;2023-02-28T01:50:12;0.50;73.80
13115;DHT22;6623;52.120;8.660;2023-02-28T01:52:38;0.50;73.80
13115;DHT22;6623;52.120;8.660;2023-02-28T01:55:06;0.40;73.70
13115;DHT22;6623;52.120;8.660;2023-02-28T01:57:41;0.40;73.70
13115;DHT22;6623;52.120;8.660;2023-02-28T02:00:13;0.40;73.70
13115;DHT22;6623;52.120;8.660;2023-02-28T02:02:43;0.40;73.70
13115;DHT22;6623;52.120;8.660;2023-02-28T02:05:14;0.40;73.70
13115;DHT22;6623;52.120;8.660;2023-02-28T02:07:41;0.30;73.70
13115;DHT22;6623;52.120;8.660;2023-02-28T02:10:12;0.30;73.80
13115;DHT22;6623;52.120;8.660;2023-02-28T02:15:49;0.30;73.90
13115;DHT22;6623;52.120;8.660;2023-02-28T02:18:31;0.30;74.10
13115;DHT22;6623;52.120;8.660;2023-02-28T02:21:16;0.30;74.40
13115;DHT22;6623;52.120;8.660;2023-02-28T02:27:18;0.30;74.80
13115;DHT22;6623;52.120;8.660;2023-02-28T02:30:02;0.40;75.00
13115;DHT22;6623;52.120;8.660;2023-02-28T02:32:57;0.40;75.10
13115;DHT22;6623;52.120;8.660;2023-02-28T02:35:52;0.40;75.10
13115;DHT22;6623;52.120;8.660;2023-02-28T02:38:41;0.40;75.10
13115;DHT22;6623;52.120;8.660;2023-02-28T02:41:49;0.50;75.20
13115;DHT22;6623;52.120;8.660;2023-02-28T02:44:43;0.50;75.10
13115;DHT22;6623;52.120;8.660;2023-02-28T02:47:15;0.50;74.90
13115;DHT22;6623;52.120;8.660;2023-02-28T02:49:47;0.40;74.70
13115;DHT22;6623;52.120;8.660;2023-02-28T02:52:15;0.40;74.70
13115;DHT22;6623;52.120;8.660;2023-02-28T02:54:45;0.40;74.70
13115;DHT22;6623;52.120;8.660;2023-02-28T02:57:23;0.30;74.60
13115;DHT22;6623;52.120;8.660;2023-02-28T02:59:50;0.30;74.60
13115;DHT22;6623;52.120;8.660;2023-02-28T03:02:18;0.30;74.60
13115;DHT22;6623;52.120;8.660;2023-02-28T03:04:58;0.20;75.20
13115;DHT22;6623;52.120;8.660;2023-02-28T03:07:26;0.30;74.60
13115;DHT22;6623;52.120;8.660;2023-02-28T03:09:56;0.20;74.50
13115;DHT22;6623;52.120;8.660;2023-02-28T03:12:30;0.20;74.50
13115;DHT22;6623;52.120;8.660;2023-02-28T03:17:47;0.10;74.40
13115;DHT22;6623;52.120;8.660;2023-02-28T03:25:59;0.00;74.30
13115;DHT22;6623;52.120;8.660;2023-02-28T03:29:02;-0.10;74.30
13115;DHT22;6623;52.120;8.660;2023-02-28T03:31:41;-0.10;74.30
13115;DHT22;6623;52.120;8.660;2023-02-28T03:34:22;-0.10;75.00
13115;DHT22;6623;52.120;8.660;2023-02-28T03:36:53;-0.20;74.20
13115;DHT22;6623;52.120;8.660;2023-02-28T03:39:25;-0.20;74.90
13115;DHT22;6623;52.120;8.660;2023-02-28T03:42:06;-0.20;74.30
13115;DHT22;6623;52.120;8.660;2023-02-28T03:44:38;-0.20;74.30
13115;DHT22;6623;52.120;8.660;2023-02-28T03:47:09;-0.80;74.10
13115;DHT22;6623;52.120;8.660;2023-02-28T03:49:40;-0.30;74.40
13115;DHT22;6623;52.120;8.660;2023-02-28T03:52:13;-0.30;74.40
13115;DHT22;6623;52.120;8.660;2023-02-28T03:54:49;-0.30;74.50
13115;DHT22;6623;52.120;8.660;2023-02-28T03:59:48;-0.30;74.50
13115;DHT22;6623;52.120;8.660;2023-02-28T04:02:17;-0.40;74.50
13115;DHT22;6623;52.120;8.660;2023-02-28T04:04:43;-0.40;74.50
13115;DHT22;6623;52.120;8.660;2023-02-28T04:07:14;-0.40;74.60
13115;DHT22;6623;52.120;8.660;2023-02-28T04:09:41;-0.40;74.60
13115;DHT22;6623;52.120;8.660;2023-02-28T04:12:07;-0.50;74.60
13115;DHT22;6623;52.120;8.660;2023-02-28T04:14:32;-0.50;74.80
13115;DHT22;6623;52.120;8.660;2023-02-28T04:16:58;-0.50;74.60
13115;DHT22;6623;52.120;8.660;2023-02-28T04:19:24;-0.50;74.70
13115;DHT22;6623;52.120;8.660;2023-02-28T04:21:51;-0.50;74.70
13115;DHT22;6623;52.120;8.660;2023-02-28T04:24:28;-0.50;74.70
13115;DHT22;6623;52.120;8.660;2023-02-28T04:26:55;-0.60;74.70
13115;DHT22;6623;52.120;8.660;2023-02-28T04:29:26;-0.60;75.30
13115;DHT22;6623;52.120;8.660;2023-02-28T04:31:53;-0.60;74.70
13115;DHT22;6623;52.120;8.660;2023-02-28T04:34:19;-0.60;74.70
13115;DHT22;6623;52.120;8.660;2023-02-28T04:36:46;-0.20;74.90
13115;DHT22;6623;52.120;8.660;2023-02-28T04:39:14;-0.70;74.70
13115;DHT22;6623;52.120;8.660;2023-02-28T04:41:40;-0.70;74.70
13115;DHT22;6623;52.120;8.660;2023-02-28T04:44:05;-0.70;74.80
13115;DHT22;6623;52.120;8.660;2023-02-28T04:46:31;-0.70;74.80
13115;DHT22;6623;52.120;8.660;2023-02-28T04:48:56;-0.70;74.90
13115;DHT22;6623;52.120;8.660;2023-02-28T04:51:22;-0.70;75.00
13115;DHT22;6623;52.120;8.660;2023-02-28T04:53:48;-0.80;75.60
13115;DHT22;6623;52.120;8.660;2023-02-28T04:56:15;-0.80;75.10
13115;DHT22;6623;52.120;8.660;2023-02-28T04:58:41;-0.80;75.10
13115;DHT22;6623;52.120;8.660;2023-02-28T05:01:17;-0.80;75.20
13115;DHT22;6623;52.120;8.660;2023-02-28T05:03:43;-0.80;75.20
13115;DHT22;6623;52.120;8.660;2023-02-28T05:06:11;-0.80;75.10
13115;DHT22;6623;52.120;8.660;2023-02-28T05:08:37;-0.90;75.10
13115;DHT22;6623;52.120;8.660;2023-02-28T05:11:03;-0.90;75.10
13115;DHT22;6623;52.120;8.660;2023-02-28T05:13:29;-0.90;75.10
13115;DHT22;6623;52.120;8.660;2023-02-28T05:15:55;-0.90;75.00
13115;DHT22;6623;52.120;8.660;2023-02-28T05:18:21;-0.90;75.10
13115;DHT22;6623;52.120;8.660;2023-02-28T05:20:47;-0.90;75.20
13115;DHT22;6623;52.120;8.660;2023-02-28T05:23:13;-0.90;75.20
13115;DHT22;6623;52.120;8.660;2023-02-28T05:25:39;-0.90;75.20
13115;DHT22;6623;52.120;8.660;2023-02-28T05:28:05;-1.00;75.10
13115;DHT22;6623;52.120;8.660;2023-02-28T05:30:31;-1.00;75.20
13115;DHT22;6623;52.120;8.660;2023-02-28T05:32:57;-1.00;75.20
13115;DHT22;6623;52.120;8.660;2023-02-28T05:35:23;-1.00;75.30
13115;DHT22;6623;52.120;8.660;2023-02-28T05:37:49;-1.00;75.30
13115;DHT22;6623;52.120;8.660;2023-02-28T05:40:15;-1.10;75.30
13115;DHT22;6623;52.120;8.660;2023-02-28T05:42:41;-1.10;75.30
13115;DHT22;6623;52.120;8.660;2023-02-28T05:45:07;-0.30;75.70
13115;DHT22;6623;52.120;8.660;2023-02-28T05:47:33;-1.10;75.30
13115;DHT22;6623;52.120;8.660;2023-02-28T05:49:58;-1.10;75.30
13115;DHT22;6623;52.120;8.660;2023-02-28T05:52:25;-1.10;75.30
13115;DHT22;6623;52.120;8.660;2023-02-28T05:54:50;-1.20;75.30
13115;DHT22;6623;52.120;8.660;2023-02-28T05:57:16;-1.20;75.30
13115;DHT22;6623;52.120;8.660;2023-02-28T05:59:41;-1.20;75.30
13115;DHT22;6623;52.120;8.660;2023-02-28T06:02:12;-1.20;75.40
13115;DHT22;6623;52.120;8.660;2023-02-28T06:04:38;-1.20;75.40
13115;DHT22;6623;52.120;8.660;2023-02-28T06:07:06;-1.20;75.40
13115;DHT22;6623;52.120;8.660;2023-02-28T06:09:31;-1.20;75.40
13115;DHT22;6623;52.120;8.660;2023-02-28T06:11:58;-1.20;75.40
13115;DHT22;6623;52.120;8.660;2023-02-28T06:14:24;-1.30;75.40
13115;DHT22;6623;52.120;8.660;2023-02-28T06:16:50;-1.30;75.40
13115;DHT22;6623;52.120;8.660;2023-02-28T06:19:15;-1.30;75.50
13115;DHT22;6623;52.120;8.660;2023-02-28T06:21:41;-1.30;75.50
13115;DHT22;6623;52.120;8.660;2023-02-28T06:24:07;-1.30;75.60
13115;DHT22;6623;52.120;8.660;2023-02-28T06:26:33;-1.30;75.70
13115;DHT22;6623;52.120;8.660;2023-02-28T06:28:58;-1.30;75.70
13115;DHT22;6623;52.120;8.660;2023-02-28T06:31:25;-1.30;75.80
13115;DHT22;6623;52.120;8.660;2023-02-28T06:33:51;-1.30;75.80
13115;DHT22;6623;52.120;8.660;2023-02-28T06:36:18;-1.30;75.90
13115;DHT22;6623;52.120;8.660;2023-02-28T06:38:45;-1.30;76.00
13115;DHT22;6623;52.120;8.660;2023-02-28T06:41:11;-1.30;75.90
13115;DHT22;6623;52.120;8.660;2023-02-28T06:43:40;-1.30;76.00
13115;DHT22;6623;52.120;8.660;2023-02-28T06:46:07;-1.30;76.10
13115;DHT22;6623;52.120;8.660;2023-02-28T06:48:33;-1.30;76.20
13115;DHT22;6623;52.120;8.660;2023-02-28T06:51:07;-1.30;76.20
13115;DHT22;6623;52.120;8.660;2023-02-28T06:53:33;-1.30;76.30
13115;DHT22;6623;52.120;8.660;2023-02-28T06:55:59;-1.20;76.50
13115;DHT22;6623;52.120;8.660;2023-02-28T06:58:25;-1.20;76.50
13115;DHT22;6623;52.120;8.660;2023-02-28T07:00:51;-1.20;76.60
13115;DHT22;6623;52.120;8.660;2023-02-28T07:03:18;-1.20;76.60
13115;DHT22;6623;52.120;8.660;2023-02-28T07:05:44;-1.20;76.70
13115;DHT22;6623;52.120;8.660;2023-02-28T07:08:10;-1.20;76.70
13115;DHT22;6623;52.120;8.660;2023-02-28T07:10:38;-1.20;76.80
13115;DHT22;6623;52.120;8.660;2023-02-28T07:13:05;-1.20;76.80
13115;DHT22;6623;52.120;8.660;2023-02-28T07:15:31;-1.20;76.90
13115;DHT22;6623;52.120;8.660;2023-02-28T07:17:57;-1.20;77.00
13115;DHT22;6623;52.120;8.660;2023-02-28T07:20:23;-1.20;77.00
13115;DHT22;6623;52.120;8.660;2023-02-28T07:22:50;-0.50;77.50
13115;DHT22;6623;52.120;8.660;2023-02-28T07:25:22;-1.00;77.30
13115;DHT22;6623;52.120;8.660;2023-02-28T07:27:48;-1.10;77.40
13115;DHT22;6623;52.120;8.660;2023-02-28T07:30:14;-1.10;77.40
13115;DHT22;6623;52.120;8.660;2023-02-28T07:32:39;-1.10;77.60
13115;DHT22;6623;52.120;8.660;2023-02-28T07:35:05;-1.10;77.60
13115;DHT22;6623;52.120;8.660;2023-02-28T07:37:31;-1.00;77.80
13115;DHT22;6623;52.120;8.660;2023-02-28T07:40:03;-0.20;78.40
13115;DHT22;6623;52.120;8.660;2023-02-28T07:42:31;-1.00;78.00
13115;DHT22;6623;52.120;8.660;2023-02-28T07:44:57;-1.00;78.00
13115;DHT22;6623;52.120;8.660;2023-02-28T07:47:22;-0.90;78.10
13115;DHT22;6623;52.120;8.660;2023-02-28T07:49:48;-0.90;78.30
13115;DHT22;6623;52.120;8.660;2023-02-28T07:52:13;-0.90;78.40
13115;DHT22;6623;52.120;8.660;2023-02-28T07:54:39;-0.90;78.40
13115;DHT22;6623;52.120;8.660;2023-02-28T07:57:04;-0.80;78.60
13115;DHT22;6623;52.120;8.660;2023-02-28T07:59:30;-0.90;78.60
13115;DHT22;6623;52.120;8.660;2023-02-28T08:01:57;-0.80;78.70
13115;DHT22;6623;52.120;8.660;2023-02-28T08:04:22;-0.80;78.80
13115;DHT22;6623;52.120;8.660;2023-02-28T08:06:48;-0.70;79.00
13115;DHT22;6623;52.120;8.660;2023-02-28T08:09:13;-0.70;79.00
13115;DHT22;6623;52.120;8.660;2023-02-28T08:11:40;-0.70;79.00
13115;DHT22;6623;52.120;8.660;2023-02-28T08:14:05;-0.70;79.10
13115;DHT22;6623;52.120;8.660;2023-02-28T08:16:31;-0.60;79.20
13115;DHT22;6623;52.120;8.660;2023-02-28T08:18:56;-0.60;79.30
13115;DHT22;6623;52.120;8.660;2023-02-28T08:21:22;-0.50;79.40
13115;DHT22;6623;52.120;8.660;2023-02-28T08:23:48;-0.50;79.40
13115;DHT22;6623;52.120;8.660;2023-02-28T08:26:16;-0.50;79.40
13115;DHT22;6623;52.120;8.660;2023-02-28T08:28:42;-0.40;79.50
13115;DHT22;6623;52.120;8.660;2023-02-28T08:31:12;-0.40;79.60
13115;DHT22;6623;52.120;8.660;2023-02-28T08:33:39;-0.30;79.80
13115;DHT22;6623;52.120;8.660;2023-02-28T08:36:06;-0.30;79.80
13115;DHT22;6623;52.120;8.660;2023-02-28T08:38:33;-0.30;80.40
13115;DHT22;6623;52.120;8.660;2023-02-28T08:41:00;-0.20;79.90
13115;DHT22;6623;52.120;8.660;2023-02-28T08:43:26;-0.20;79.90
13115;DHT22;6623;52.120;8.660;2023-02-28T08:45:52;-0.10;80.10
13115;DHT22;6623;52.120;8.660;2023-02-28T08:48:18;-0.10;80.10
13115;DHT22;6623;52.120;8.660;2023-02-28T08:50:44;-0.10;80.10
13115;DHT22;6623;52.120;8.660;2023-02-28T08:53:09;0.00;80.20
13115;DHT22;6623;52.120;8.660;2023-02-28T08:55:35;0.00;80.20
13115;DHT22;6623;52.120;8.660;2023-02-28T08:58:00;0.10;80.20
13115;DHT22;6623;52.120;8.660;2023-02-28T09:00:26;0.10;80.20
13115;DHT22;6623;52.120;8.660;2023-02-28T09:02:52;0.20;80.20
13115;DHT22;6623;52.120;8.660;2023-02-28T09:05:17;0.30;80.30
13115;DHT22;6623;52.120;8.660;2023-02-28T09:07:43;0.40;80.30
13115;DHT22;6623;52.120;8.660;2023-02-28T09:10:09;0.40;80.10
13115;DHT22;6623;52.120;8.660;2023-02-28T09:12:35;0.50;80.00
13115;DHT22;6623;52.120;8.660;2023-02-28T09:15:01;0.60;79.90
13115;DHT22;6623;52.120;8.660;2023-02-28T09:17:29;0.60;79.70
13115;DHT22;6623;52.120;8.660;2023-02-28T09:19:55;0.70;79.50
13115;DHT22;6623;52.120;8.660;2023-02-28T09:22:20;0.80;79.30
13115;DHT22;6623;52.120;8.660;2023-02-28T09:24:46;0.90;79.30
13115;DHT22;6623;52.120;8.660;2023-02-28T09:27:12;1.00;79.20
13115;DHT22;6623;52.120;8.660;2023-02-28T09:29:37;1.00;78.70
13115;DHT22;6623;52.120;8.660;2023-02-28T09:32:03;1.10;78.50
13115;DHT22;6623;52.120;8.660;2023-02-28T09:34:30;1.20;78.20
13115;DHT22;6623;52.120;8.660;2023-02-28T09:36:56;1.30;77.90
13115;DHT22;6623;52.120;8.660;2023-02-28T09:39:22;1.30;77.50
13115;DHT22;6623;52.120;8.660;2023-02-28T09:41:50;1.40;77.10
13115;DHT22;6623;52.120;8.660;2023-02-28T09:46:53;1.60;76.90
13115;DHT22;6623;52.120;8.660;2023-02-28T09:49:43;1.70;76.70
13115;DHT22;6623;52.120;8.660;2023-02-28T09:52:19;1.70;76.10
13115;DHT22;6623;52.120;8.660;2023-02-28T09:54:45;1.80;75.70
13115;DHT22;6623;52.120;8.660;2023-02-28T10:03:23;2.00;74.30
13115;DHT22;6623;52.120;8.660;2023-02-28T10:05:54;2.00;73.50
13115;DHT22;6623;52.120;8.660;2023-02-28T10:08:28;2.20;72.90
13115;DHT22;6623;52.120;8.660;2023-02-28T10:11:01;2.10;72.50
13115;DHT22;6623;52.120;8.660;2023-02-28T10:16:20;2.20;71.90
13115;DHT22;6623;52.120;8.660;2023-02-28T10:18:55;2.30;72.10
13115;DHT22;6623;52.120;8.660;2023-02-28T10:21:26;2.70;72.30
13115;DHT22;6623;52.120;8.660;2023-02-28T10:24:01;2.40;71.90
13115;DHT22;6623;52.120;8.660;2023-02-28T10:26:29;2.40;71.60
13115;DHT22;6623;52.120;8.660;2023-02-28T10:29:00;2.50;71.50
13115;DHT22;6623;52.120;8.660;2023-02-28T10:31:26;2.50;70.80
13115;DHT22;6623;52.120;8.660;2023-02-28T10:33:51;2.60;70.70
13115;DHT22;6623;52.120;8.660;2023-02-28T10:36:19;2.60;70.90
13115;DHT22;6623;52.120;8.660;2023-02-28T10:38:46;2.60;70.30
13115;DHT22;6623;52.120;8.660;2023-02-28T10:41:15;2.70;69.80
13115;DHT22;6623;52.120;8.660;2023-02-28T10:43:42;2.70;69.70
13115;DHT22;6623;52.120;8.660;2023-02-28T10:51:02;2.80;69.20
13115;DHT22;6623;52.120;8.660;2023-02-28T10:53:48;2.90;69.20
13115;DHT22;6623;52.120;8.660;2023-02-28T10:56:17;3.00;68.60
13115;DHT22;6623;52.120;8.660;2023-02-28T11:03:56;3.10;67.60
13115;DHT22;6623;52.120;8.660;2023-02-28T11:06:34;3.10;67.20
13115;DHT22;6623;52.120;8.660;2023-02-28T11:09:03;3.20;66.90
13115;DHT22;6623;52.120;8.660;2023-02-28T11:11:43;3.20;67.20
13115;DHT22;6623;52.120;8.660;2023-02-28T11:14:22;3.30;67.00
13115;DHT22;6623;52.120;8.660;2023-02-28T11:16:48;3.40;66.70
13115;DHT22;6623;52.120;8.660;2023-02-28T11:19:28;3.50;66.10
13115;DHT22;6623;52.120;8.660;2023-02-28T11:22:00;3.40;65.60
13115;DHT22;6623;52.120;8.660;2023-02-28T11:24:27;3.50;65.10
13115;DHT22;6623;52.120;8.660;2023-02-28T11:26:54;3.50;65.10
13115;DHT22;6623;52.120;8.660;2023-02-28T11:29:29;3.40;64.90
13115;DHT22;6623;52.120;8.660;2023-02-28T11:32:13;3.50;64.60
13115;DHT22;6623;52.120;8.660;2023-02-28T11:34:41;3.50;64.60
13115;DHT22;6623;52.120;8.660;2023-02-28T11:37:13;3.40;64.10
13115;DHT22;6623;52.120;8.660;2023-02-28T11:39:40;3.40;63.90
13115;DHT22;6623;52.120;8.660;2023-02-28T11:47:54;3.40;62.90
13115;DHT22;6623;52.120;8.660;2023-02-28T11:55:54;3.50;63.40
13115;DHT22;6623;52.120;8.660;2023-02-28T11:58:38;3.60;63.40
13115;DHT22;6623;52.120;8.660;2023-02-28T12:04:24;3.60;63.30
13115;DHT22;6623;52.120;8.660;2023-02-28T12:07:08;3.70;63.70
13115;DHT22;6623;52.120;8.660;2023-02-28T12:13:20;3.90;63.20
13115;DHT22;6623;52.120;8.660;2023-02-28T12:15:50;3.90;62.90
13115;DHT22;6623;52.120;8.660;2023-02-28T12:18:53;4.00;63.10
13115;DHT22;6623;52.120;8.660;2023-02-28T12:21:51;3.90;62.70
13115;DHT22;6623;52.120;8.660;2023-02-28T12:27:03;4.00;62.30
13115;DHT22;6623;52.120;8.660;2023-02-28T12:29:43;4.00;62.50
13115;DHT22;6623;52.120;8.660;2023-02-28T12:32:30;4.30;62.00
13115;DHT22;6623;52.120;8.660;2023-02-28T12:35:13;4.00;61.30
13115;DHT22;6623;52.120;8.660;2023-02-28T12:40:26;4.00;60.80
13115;DHT22;6623;52.120;8.660;2023-02-28T12:42:59;4.10;60.30
13115;DHT22;6623;52.120;8.660;2023-02-28T12:48:18;4.10;60.30
13115;DHT22;6623;52.120;8.660;2023-02-28T12:50:45;4.10;59.40
13115;DHT22;6623;52.120;8.660;2023-02-28T12:56:29;4.10;59.50
13115;DHT22;6623;52.120;8.660;2023-02-28T12:59:02;4.10;59.50
13115;DHT22;6623;52.120;8.660;2023-02-28T13:01:35;4.10;59.40
13115;DHT22;6623;52.120;8.660;2023-02-28T13:04:31;4.10;59.50
13115;DHT22;6623;52.120;8.660;2023-02-28T13:07:20;4.20;59.50
13115;DHT22;6623;52.120;8.660;2023-02-28T13:09:54;4.20;59.00
13115;DHT22;6623;52.120;8.660;2023-02-28T13:12:21;4.20;58.90
13115;DHT22;6623;52.120;8.660;2023-02-28T13:14:48;4.20;59.10
13115;DHT22;6623;52.120;8.660;2023-02-28T13:17:22;4.20;58.80
13115;DHT22;6623;52.120;8.660;2023-02-28T13:24:52;4.20;58.90
13115;DHT22;6623;52.120;8.660;2023-02-28T13:27:38;4.20;58.70
13115;DHT22;6623;52.120;8.660;2023-02-28T13:33:36;4.30;58.70
13115;DHT22;6623;52.120;8.660;2023-02-28T13:44:17;4.30;58.70
13115;DHT22;6623;52.120;8.660;2023-02-28T13:51:55;4.40;58.80
13115;DHT22;6623;52.120;8.660;2023-02-28T13:55:12;4.40;58.70
13115;DHT22;6623;52.120;8.660;2023-02-28T14:01:11;4.40;57.80
13115;DHT22;6623;52.120;8.660;2023-02-28T14:04:08;4.50;58.10
13115;DHT22;6623;52.120;8.660;2023-02-28T14:06:37;4.40;58.10
13115;DHT22;6623;52.120;8.660;2023-02-28T14:11:51;4.50;58.10
13115;DHT22;6623;52.120;8.660;2023-02-28T14:17:08;4.50;58.00
13115;DHT22;6623;52.120;8.660;2023-02-28T14:19:39;4.50;58.00
13115;DHT22;6623;52.120;8.660;2023-02-28T14:22:24;4.50;57.90
13115;DHT22;6623;52.120;8.660;2023-02-28T14:27:53;4.60;58.40
13115;DHT22;6623;52.120;8.660;2023-02-28T14:38:36;4.50;58.20
13115;DHT22;6623;52.120;8.660;2023-02-28T14:41:11;4.50;58.00
13115;DHT22;6623;52.120;8.660;2023-02-28T14:43:51;4.50;58.10
13115;DHT22;6623;52.120;8.660;2023-02-28T14:46:17;4.50;58.20
13115;DHT22;6623;52.120;8.660;2023-02-28T14:48:48;4.50;58.20
13115;DHT22;6623;52.120;8.660;2023-02-28T14:51:19;4.60;58.10
13115;DHT22;6623;52.120;8.660;2023-02-28T14:53:49;4.50;58.20
13115;DHT22;6623;52.120;8.660;2023-02-28T14:56:30;4.50;58.50
13115;DHT22;6623;52.120;8.660;2023-02-28T14:58:58;4.50;58.30
13115;DHT22;6623;52.120;8.660;2023-02-28T15:01:24;4.60;58.00
13115;DHT22;6623;52.120;8.660;2023-02-28T15:04:02;4.50;58.10
13115;DHT22;6623;52.120;8.660;2023-02-28T15:06:29;4.50;58.30
13115;DHT22;6623;52.120;8.660;2023-02-28T15:09:14;4.50;58.20
13115;DHT22;6623;52.120;8.660;2023-02-28T15:11:41;4.50;58.20
13115;DHT22;6623;52.120;8.660;2023-02-28T15:14:18;4.50;58.20
13115;DHT22;6623;52.120;8.660;2023-02-28T15:16:46;4.50;58.30
13115;DHT22;6623;52.120;8.660;2023-02-28T15:19:23;4.50;58.30
13115;DHT22;6623;52.120;8.660;2023-02-28T15:22:13;4.50;57.90
13115;DHT22;6623;52.120;8.660;2023-02-28T15:24:47;4.50;57.90
13115;DHT22;6623;52.120;8.660;2023-02-28T15:27:20;4.50;58.10
13115;DHT22;6623;52.120;8.660;2023-02-28T15:29:55;4.50;57.80
13115;DHT22;6623;52.120;8.660;2023-02-28T15:32:37;4.50;58.00
13115;DHT22;6623;52.120;8.660;2023-02-28T15:37:55;4.40;58.20
13115;DHT22;6623;52.120;8.660;2023-02-28T15:40:37;4.50;58.40
13115;DHT22;6623;52.120;8.660;2023-02-28T15:43:12;4.50;58.50
13115;DHT22;6623;52.120;8.660;2023-02-28T15:46:02;4.50;58.60
13115;DHT22;6623;52.120;8.660;2023-02-28T15:48:37;4.40;58.70
13115;DHT22;6623;52.120;8.660;2023-02-28T15:51:18;4.40;58.80
13115;DHT22;6623;52.120;8.660;2023-02-28T15:53:50;4.50;58.90
13115;DHT22;6623;52.120;8.660;2023-02-28T15:56:25;4.40;58.80
13115;DHT22;6623;52.120;8.660;2023-02-28T15:58:57;4.40;58.80
13115;DHT22;6623;52.120;8.660;2023-02-28T16:01:29;4.40;58.80
13115;DHT22;6623;52.120;8.660;2023-02-28T16:03:59;4.40;58.90
13115;DHT22;6623;52.120;8.660;2023-02-28T16:08:59;4.40;58.90
13115;DHT22;6623;52.120;8.660;2023-02-28T16:11:24;4.30;58.90
13115;DHT22;6623;52.120;8.660;2023-02-28T16:13:51;4.40;59.10
13115;DHT22;6623;52.120;8.660;2023-02-28T16:16:18;4.30;59.00
13115;DHT22;6623;52.120;8.660;2023-02-28T16:18:45;4.30;58.80
13115;DHT22;6623;52.120;8.660;2023-02-28T16:21:11;4.30;59.00
13115;DHT22;6623;52.120;8.660;2023-02-28T16:23:36;4.30;59.00
13115;DHT22;6623;52.120;8.660;2023-02-28T16:26:03;4.20;59.10
13115;DHT22;6623;52.120;8.660;2023-02-28T16:28:35;4.20;59.10
13115;DHT22;6623;52.120;8.660;2023-02-28T16:31:03;4.50;59.30
13115;DHT22;6623;52.120;8.660;2023-02-28T16:33:30;4.20;59.30
13115;DHT22;6623;52.120;8.660;2023-02-28T16:35:56;4.20;59.30
13115;DHT22;6623;52.120;8.660;2023-02-28T16:38:22;4.10;59.40
13115;DHT22;6623;52.120;8.660;2023-02-28T16:40:50;4.10;59.40
13115;DHT22;6623;52.120;8.660;2023-02-28T16:43:19;4.40;59.60
13115;DHT22;6623;52.120;8.660;2023-02-28T16:45:46;4.10;59.50
13115;DHT22;6623;52.120;8.660;2023-02-28T16:48:14;4.00;59.50
13115;DHT22;6623;52.120;8.660;2023-02-28T16:50:41;4.00;59.60
13115;DHT22;6623;52.120;8.660;2023-02-28T16:53:07;4.00;59.70
13115;DHT22;6623;52.120;8.660;2023-02-28T16:55:34;3.90;59.80
13115;DHT22;6623;52.120;8.660;2023-02-28T16:58:01;3.90;59.80
13115;DHT22;6623;52.120;8.660;2023-02-28T17:00:28;3.90;59.90
13115;DHT22;6623;52.120;8.660;2023-02-28T17:02:55;3.90;60.00
13115;DHT22;6623;52.120;8.660;2023-02-28T17:05:21;3.90;60.00
13115;DHT22;6623;52.120;8.660;2023-02-28T17:07:47;3.80;60.00
13115;DHT22;6623;52.120;8.660;2023-02-28T17:10:19;3.90;60.10
13115;DHT22;6623;52.120;8.660;2023-02-28T17:12:45;3.90;60.20
13115;DHT22;6623;52.120;8.660;2023-02-28T17:15:13;3.80;60.30
13115;DHT22;6623;52.120;8.660;2023-02-28T17:17:39;3.70;60.30
13115;DHT22;6623;52.120;8.660;2023-02-28T17:20:10;3.70;60.30
13115;DHT22;6623;52.120;8.660;2023-02-28T17:22:36;3.70;60.40
13115;DHT22;6623;52.120;8.660;2023-02-28T17:25:02;3.60;60.40
13115;DHT22;6623;52.120;8.660;2023-02-28T17:27:28;3.60;60.50
13115;DHT22;6623;52.120;8.660;2023-02-28T17:29:53;3.60;60.60
13115;DHT22;6623;52.120;8.660;2023-02-28T17:32:19;3.60;60.60
13115;DHT22;6623;52.120;8.660;2023-02-28T17:34:44;3.50;60.70
13115;DHT22;6623;52.120;8.660;2023-02-28T17:37:11;3.50;60.70
13115;DHT22;6623;52.120;8.660;2023-02-28T17:39:36;3.50;60.80
13115;DHT22;6623;52.120;8.660;2023-02-28T17:42:02;3.40;61.40
13115;DHT22;6623;52.120;8.660;2023-02-28T17:44:27;3.40;60.80
13115;DHT22;6623;52.120;8.660;2023-02-28T17:46:54;3.40;61.00
13115;DHT22;6623;52.120;8.660;2023-02-28T17:49:20;3.40;60.90
13115;DHT22;6623;52.120;8.660;2023-02-28T17:51:46;3.40;61.00
13115;DHT22;6623;52.120;8.660;2023-02-28T17:54:12;3.30;61.00
13115;DHT22;6623;52.120;8.660;2023-02-28T17:56:40;3.30;61.30
13115;DHT22;6623;52.120;8.660;2023-02-28T17:59:05;3.30;61.10
13115;DHT22;6623;52.120;8.660;2023-02-28T18:01:31;3.20;61.20
13115;DHT22;6623;52.120;8.660;2023-02-28T18:03:56;3.20;61.20
13115;DHT22;6623;52.120;8.660;2023-02-28T18:06:25;3.30;61.30
13115;DHT22;6623;52.120;8.660;2023-02-28T18:08:52;3.10;61.20
13115;DHT22;6623;52.120;8.660;2023-02-28T18:11:20;3.10;61.40
13115;DHT22;6623;52.120;8.660;2023-02-28T18:13:48;3.10;61.40